Flight Track Log - Related Links

Times and Time Zones

All times are in EDT time to prevent confusion due to time zone crossing. See the RPA5940 flight status page for this flight to view local times or setup timezone preferences in your user account.

Time Position Orientation Groundspeed Altitude Reporting Facility
EDT Latitude Longitude Course Direction KTS MPH feet Rate Location/Type
Sat 10:59:25 AM 34.7167 -90.3500 360° North 154 177 1,200  Level KMEM
Sat 11:00:49 AM 34.8000 -90.3500 360° North 241 277 3,200 2,087 Climbing KMEM
Sat 11:01:43 AM 34.8500 -90.3333 15° North 278 320 6,000 2,975 Climbing KMEM
Sat 11:02:50 AM 34.9031 -90.2458 54° Northeast 292 336 9,200 2,504 Climbing Memphis Center
Sat 11:03:50 AM 34.9444 -90.1519 62° Northeast 305 351 11,300 2,269 Climbing Memphis Center
Sat 11:04:49 AM 34.9833 -90.0500 65° Northeast 333 383 13,700 2,118 Climbing KMEM
Sat 11:05:49 AM 35.0333 -89.9667 54° Northeast 348 400 15,500 1,293 Climbing KMEM
Sat 11:07:50 AM 35.2003 -89.8514 29° Northeast 356 410 17,600 1,392 Climbing Memphis Center
Sat 11:08:50 AM 35.2833 -89.7897 31° Northeast 343 395 19,700 1,900 Climbing Memphis Center
Sat 11:09:50 AM 35.3686 -89.7256 32° Northeast 343 395 21,400 1,600 Climbing Memphis Center
Sat 11:10:50 AM 35.4581 -89.6586 31° Northeast 352 405 22,900 1,400 Climbing Memphis Center
Sat 11:11:50 AM 35.5556 -89.5864 31° Northeast 361 415 24,200 1,400 Climbing Memphis Center
Sat 11:12:50 AM 35.6489 -89.5192 30° Northeast 375 432 25,700 1,400 Climbing Memphis Center
Sat 11:13:50 AM 35.7403 -89.4464 33° Northeast 386 444 27,000 1,250 Climbing Memphis Center
Sat 11:14:50 AM 35.8378 -89.3736 31° Northeast 386 444 28,200 1,150 Climbing Memphis Center
Sat 11:15:50 AM 35.9372 -89.2981 32° Northeast 398 458 29,300 1,100 Climbing Memphis Center
Sat 11:16:50 AM 36.0386 -89.2225 31° Northeast 409 471 30,400 1,050 Climbing Memphis Center
Sat 11:17:50 AM 36.1422 -89.1414 32° Northeast 423 487 31,400 950 Climbing Memphis Center
Sat 11:18:50 AM 36.2478 -89.0650 30° Northeast 428 493 32,300 850 Climbing Memphis Center
Sat 11:19:50 AM 36.3531 -88.9836 32° Northeast 433 498 33,100 900 Climbing Memphis Center
Sat 11:20:50 AM 36.4628 -88.9042 30° Northeast 438 504 34,100 950 Climbing Memphis Center
Sat 11:21:50 AM 36.5681 -88.8250 31° Northeast 438 504 35,000 450 Climbing Memphis Center
Sat 11:22:50 AM 36.6733 -88.7478 30° Northeast 438 504 35,000  Level Memphis Center
Sat 11:23:50 AM 36.7806 -88.6653 32° Northeast 438 504 35,000  Level Memphis Center
Sat 11:24:50 AM 36.8900 -88.5825 31° Northeast 443 510 35,000  Level Memphis Center
Sat 11:25:51 AM 36.9972 -88.4997 32° Northeast 443 510 35,000  Level Memphis Center
Sat 11:26:50 AM 37.1042 -88.4167 32° Northeast 443 510 35,000  Level Memphis Center
Sat 11:28:41 AM 37.2906 -88.2650 33° Northeast 457 526 35,000  Level Indianapolis Center
Sat 11:29:43 AM 37.3978 -88.1825 31° Northeast 450 518 35,000  Level Indianapolis Center
Sat 11:30:45 AM 37.5053 -88.0956 33° Northeast 453 521 35,000  Level Indianapolis Center
Sat 11:31:46 AM 37.6136 -88.0114 32° Northeast 452 520 35,000  Level Indianapolis Center
Sat 11:32:48 AM 37.7219 -87.9244 32° Northeast 454 522 35,000  Level Indianapolis Center
Sat 11:33:50 AM 37.8292 -87.8394 32° Northeast 457 526 35,000  Level Indianapolis Center
Sat 11:34:52 AM 37.9658 -87.7519 27° Northeast 456 525 35,000  Level Indianapolis Center
Sat 11:35:54 AM 38.0797 -87.6822 26° Northeast 454 522 35,000  Level Indianapolis Center
Sat 11:36:55 AM 38.1964 -87.6114 26° Northeast 461 531 35,000  Level Indianapolis Center
Sat 11:37:57 AM 38.3133 -87.5408 25° Northeast 459 528 35,000  Level Indianapolis Center
Sat 11:38:59 AM 38.4289 -87.4694 26° Northeast 455 524 35,000  Level Indianapolis Center
Sat 11:40:00 AM 38.5444 -87.3992 25° Northeast 454 522 35,000  Level Indianapolis Center
Sat 11:41:02 AM 38.6600 -87.3292 25° Northeast 453 521 35,000  Level Indianapolis Center
Sat 11:42:04 AM 38.7733 -87.2581 26° Northeast 451 519 35,000  Level Indianapolis Center
Sat 11:43:05 AM 38.8864 -87.1892 25° Northeast 448 516 35,000  Level Indianapolis Center
Sat 11:44:07 AM 38.9994 -87.1189 26° Northeast 447 514 35,000  Level Indianapolis Center
Sat 11:45:08 AM 39.1139 -87.0497 25° Northeast 452 520 35,000  Level Indianapolis Center
Sat 11:46:10 AM 39.2347 -86.9719 26° Northeast 455 524 35,000  Level Indianapolis Center
Sat 11:47:12 AM 39.3500 -86.9006 26° Northeast 458 527 35,000  Level Indianapolis Center
Sat 11:48:13 AM 39.4650 -86.8286 26° Northeast 458 527 35,000  Level Indianapolis Center
Sat 11:49:15 AM 39.5789 -86.7561 26° Northeast 454 522 35,000  Level Indianapolis Center
Sat 11:50:16 AM 39.7156 -86.6697 26° Northeast 452 520 35,000  Level Indianapolis Center
Sat 11:51:18 AM 39.8306 -86.5969 26° Northeast 451 519 35,000  Level Indianapolis Center
Sat 11:52:20 AM 39.9458 -86.5231 26° Northeast 455 524 35,000  Level Indianapolis Center
Sat 11:53:21 AM 40.0592 -86.4503 26° Northeast 450 518 35,000  Level Indianapolis Center
Sat 11:54:22 AM 40.1719 -86.3825 25° Northeast 445 512 35,000  Level Indianapolis Center
Sat 11:54:54 AM 40.2203 -86.3667 14° North 443 510 35,000  Level Chicago Center
Sat 11:55:56 AM 40.3633 -86.3186 14° North 442 509 35,000  Level Chicago Center
Sat 11:56:58 AM 40.4828 -86.2750 16° North 445 512 35,000  Level Chicago Center
Sat 11:58:00 AM 40.5986 -86.2092 23° Northeast 451 519 35,000  Level Chicago Center
Sat 11:59:02 AM 40.7217 -86.1244 28° Northeast 451 519 35,000  Level Chicago Center
Sat 12:00:04 PM 40.8308 -86.0481 28° Northeast 446 513 35,000  Level Chicago Center
Sat 12:01:09 PM 40.9389 -85.9719 28° Northeast 442 509 35,000  Level Chicago Center
Sat 12:02:11 PM 41.0481 -85.8969 27° Northeast 441 507 35,000  Level Chicago Center
Sat 12:03:12 PM 41.1561 -85.8214 28° Northeast 440 506 35,000  Level Chicago Center
Sat 12:04:14 PM 41.2842 -85.7319 28° Northeast 435 501 35,000  Level Chicago Center
Sat 12:05:16 PM 41.3919 -85.6547 28° Northeast 437 503 35,000  Level Chicago Center
Sat 12:06:18 PM 41.5006 -85.5789 28° Northeast 440 506 35,000  Level Chicago Center
Sat 12:07:20 PM 41.6044 -85.5056 28° Northeast 437 503 35,000  Level Chicago Center
Sat 12:08:22 PM 41.7125 -85.4292 28° Northeast 438 504 35,000 -194 Level Chicago Center
Sat 12:09:24 PM 41.8344 -85.3406 28° Northeast 444 511 34,600 -677 Descending Chicago Center
Sat 12:10:26 PM 41.9383 -85.2661 28° Northeast 428 493 33,600 -1,065 Descending Chicago Center
Sat 12:11:28 PM 42.0500 -85.1833 29° Northeast 429 494 32,400 -1,210 Descending Chicago Center
Sat 12:12:30 PM 42.1556 -85.1053 29° Northeast 433 498 31,100 -1,210 Descending Chicago Center
Sat 12:13:32 PM 42.2483 -85.0044 39° Northeast 439 505 29,900 -1,161 Descending Chicago Center
Sat 12:14:34 PM 42.3100 -84.8692 58° Northeast 426 490 28,700 -1,258 Descending Chicago Center
Sat 12:15:36 PM 42.3828 -84.7106 58° Northeast 418 481 27,300 -1,536 Descending Chicago Center
Sat 12:16:39 PM 42.4719 -84.6261 35° Northeast 405 466 25,500 -1,584 Descending Chicago Center
Sat 12:17:41 PM 42.5736 -84.5725 21° North 395 455 24,000 -726 Descending Chicago Center
Sat 12:18:43 PM 42.6753 -84.5219 20° North 390 449 24,000 -484 Level Chicago Center
Sat 12:19:45 PM 42.7767 -84.4692 21° North 393 452 23,000 -1,887 Descending Chicago Center
Sat 12:20:47 PM 42.8983 -84.4081 20° North 389 448 20,100 -2,613 Descending Chicago Center
Sat 12:21:49 PM 42.9914 -84.3592 21° North 365 420 17,600 -2,468 Descending Chicago Center
Sat 12:22:51 PM 43.0800 -84.3144 20° North 346 398 15,000 -2,391 Descending Chicago Center
Sat 12:23:57 PM 43.1769 -84.2644 21° North 332 382 12,500 -2,273 Descending Cleveland Center

Login

Don't have an account? Register now (free) for customized features, flight alerts, and more!